»·PEaware :: UAL1077 KSNA-KSFO

UAL1077 :: KSNA-KSFO

FLIGHT INFORMATION

Flight Status: Arrived
Operator:
United Airlines
More flights by this operator :: More flights under this callsign
Pilot: Ben H. (9170)
Aircraft: AIRBUS A320
(A320)
More flights by this aircraft type
Origin: KSNA John Wayne-Orange Co
United States
Destination: KSFO San Francisco Intl
United States
More flights between these airports :: More routes between these airports
Route: HHERO3 IKAYE RIZIN SPLNT STOKD SERFR SERFR3
File this flight plan on PilotEdge
Remarks: RMK / SIMBRIEF
Altitude:
(Current/Filed)
36,000ft
Speed:
(Current/Filed)
455kts
Departed: 02-Dec-19 04:40 PM
Arrived: 02-Dec-19 05:39 PM
Distance/Time
Traveled:
323nm/0:59
Distance/Time
To Go:
Arrived

Flight Plot

Page will automatically refresh every two minutes.

Flight plan parsing failed; only flown route is shown


Map Options




Map Legend


Flown Route
Filed Route
Departure Airport
Arrival Airport
Navaid (VOR, NDB)
Fix

Horizontal Profiles

Position Reports

Time Latitude Longitude Heading Altitude Ground
Speed
02-Dec-19 15:56 33.676082 -117.864385 117 65ft 0kts
02-Dec-19 15:57 33.676082 -117.864385 117 65ft 0kts
02-Dec-19 15:58 33.676082 -117.864385 117 65ft 0kts
02-Dec-19 15:59 33.676082 -117.864385 117 65ft 0kts
02-Dec-19 16:00 33.676082 -117.864385 117 65ft 0kts
02-Dec-19 16:01 33.676082 -117.864385 117 65ft 0kts
02-Dec-19 16:03 33.676082 -117.864385 117 65ft 0kts
02-Dec-19 16:04 33.676082 -117.864385 117 65ft 0kts
02-Dec-19 16:05 33.676082 -117.864385 117 65ft 0kts
02-Dec-19 16:06 33.676082 -117.864385 117 65ft 0kts
02-Dec-19 16:07 33.676082 -117.864385 117 65ft 0kts
02-Dec-19 16:08 33.676082 -117.864385 116 65ft 0kts
02-Dec-19 16:09 33.676082 -117.864385 116 65ft 0kts
02-Dec-19 16:10 33.676082 -117.864385 116 65ft 0kts
02-Dec-19 16:11 33.676082 -117.864385 116 65ft 0kts
02-Dec-19 16:12 33.676082 -117.864385 116 65ft 0kts
02-Dec-19 16:13 33.676082 -117.864385 116 65ft 0kts
02-Dec-19 16:14 33.676082 -117.864385 116 65ft 0kts
02-Dec-19 16:15 33.676082 -117.864385 116 65ft 0kts
02-Dec-19 16:16 33.676082 -117.864385 117 65ft 0kts
02-Dec-19 16:17 33.676082 -117.864385 117 65ft 0kts
02-Dec-19 16:18 33.676082 -117.864385 117 65ft 0kts
02-Dec-19 16:19 33.676082 -117.864385 117 65ft 0kts
02-Dec-19 16:20 33.676082 -117.864385 117 65ft 0kts
02-Dec-19 16:20 33.676082 -117.864385 117 65ft 0kts
02-Dec-19 16:22 33.676082 -117.864385 117 65ft 0kts
02-Dec-19 16:23 33.676082 -117.864385 117 65ft 0kts
02-Dec-19 16:23 33.676082 -117.864385 117 65ft 0kts
02-Dec-19 16:25 33.676082 -117.864385 117 65ft 0kts
02-Dec-19 16:25 33.676082 -117.864385 117 65ft 0kts
02-Dec-19 16:26 33.676082 -117.864385 117 65ft 0kts
02-Dec-19 16:27 33.676083 -117.864385 116 65ft 0kts
02-Dec-19 16:28 33.676083 -117.864385 116 65ft 0kts
02-Dec-19 16:29 33.676223 -117.864787 87 65ft 2kts
02-Dec-19 16:30 33.676009 -117.865154 26 65ft 0kts
02-Dec-19 16:31 33.676009 -117.865154 26 65ft 0kts
02-Dec-19 16:32 33.676009 -117.865154 26 65ft 0kts
02-Dec-19 16:33 33.676009 -117.865154 26 65ft 0kts
02-Dec-19 16:34 33.676009 -117.865154 26 65ft 0kts
02-Dec-19 16:35 33.676600 -117.864810 23 65ft 12kts
02-Dec-19 16:36 33.680618 -117.863045 300 65ft 8kts
02-Dec-19 16:37 33.680636 -117.863081 299 65ft 0kts
02-Dec-19 16:38 33.681290 -117.864476 297 65ft 17kts
02-Dec-19 16:39 33.659763 -117.879031 208 1231ft 168kts
02-Dec-19 16:40 33.608293 -117.894495 186 4089ft 235kts
02-Dec-19 16:41 33.544882 -117.929708 222 5971ft 274kts
02-Dec-19 16:42 33.489955 -117.991576 222 8065ft 271kts
02-Dec-19 16:43 33.447808 -118.069032 238 11120ft 283kts
02-Dec-19 16:44 33.413892 -118.161365 268 13662ft 329kts
02-Dec-19 16:45 33.434057 -118.271704 277 16507ft 345kts
02-Dec-19 16:46 33.474460 -118.380066 290 19029ft 366kts
02-Dec-19 16:47 33.522632 -118.488498 294 21517ft 373kts
02-Dec-19 16:48 33.586346 -118.589017 298 23643ft 382kts
02-Dec-19 16:49 33.651595 -118.690643 299 25523ft 391kts
02-Dec-19 16:50 33.750419 -118.765261 320 27078ft 435kts
02-Dec-19 16:51 33.858318 -118.832333 319 28553ft 443kts
02-Dec-19 16:52 33.969064 -118.901411 318 29905ft 452kts
02-Dec-19 16:53 34.081276 -118.971610 318 31011ft 462kts
02-Dec-19 16:54 34.172157 -119.066235 287 32284ft 402kts
02-Dec-19 16:55 34.230798 -119.180444 286 33509ft 400kts
02-Dec-19 16:56 34.289333 -119.294369 286 34670ft 398kts
02-Dec-19 16:57 34.347334 -119.407606 286 35772ft 395kts
02-Dec-19 16:58 34.405085 -119.519958 289 36150ft 400kts
02-Dec-19 16:59 34.484761 -119.622978 298 36147ft 421kts
02-Dec-19 17:00 34.503405 -119.645929 298 36146ft 421kts
02-Dec-19 17:02 34.691754 -119.878599 298 36127ft 419kts
02-Dec-19 17:03 34.773719 -119.980339 298 36129ft 419kts
02-Dec-19 17:04 34.855115 -120.081688 298 36115ft 421kts
02-Dec-19 17:05 34.937401 -120.184442 299 36139ft 423kts
02-Dec-19 17:06 35.009587 -120.274840 299 36155ft 425kts
02-Dec-19 17:07 35.092553 -120.378254 301 36157ft 430kts
02-Dec-19 17:08 35.180628 -120.476880 302 36130ft 430kts
02-Dec-19 17:09 35.268518 -120.575589 302 36113ft 429kts
02-Dec-19 17:10 35.356391 -120.674571 302 36125ft 431kts
02-Dec-19 17:11 35.444542 -120.774161 302 36148ft 432kts
02-Dec-19 17:12 35.538581 -120.869260 308 36145ft 444kts
02-Dec-19 17:13 35.637104 -120.960776 308 36123ft 445kts
02-Dec-19 17:14 35.735611 -121.052526 309 36124ft 445kts
02-Dec-19 17:15 35.833994 -121.144538 309 36197ft 445kts
02-Dec-19 17:16 35.932740 -121.237114 309 36154ft 446kts
02-Dec-19 17:17 36.031842 -121.330353 310 35489ft 455kts
02-Dec-19 17:18 36.140436 -121.420818 318 31854ft 486kts
02-Dec-19 17:19 36.254074 -121.509612 320 28505ft 491kts
02-Dec-19 17:20 36.366496 -121.597807 321 26127ft 476kts
02-Dec-19 17:21 36.477141 -121.684858 322 23775ft 460kts
02-Dec-19 17:22 36.579741 -121.765905 321 22126ft 419kts
02-Dec-19 17:23 36.675305 -121.841652 321 19395ft 403kts
02-Dec-19 17:24 36.771906 -121.902731 342 17175ft 388kts
02-Dec-19 17:25 36.876136 -121.931739 342 15182ft 377kts
02-Dec-19 17:26 36.975569 -121.962286 337 13362ft 359kts
02-Dec-19 17:27 37.068740 -121.998654 339 10948ft 346kts
02-Dec-19 17:28 37.156929 -122.033113 340 9939ft 312kts
02-Dec-19 17:29 37.237602 -122.064741 342 8447ft 298kts
02-Dec-19 17:30 37.315128 -122.095201 342 7187ft 288kts
02-Dec-19 17:31 37.389351 -122.124139 345 6014ft 279kts
02-Dec-19 17:32 37.464381 -122.149553 346 5549ft 275kts
02-Dec-19 17:33 37.530874 -122.173347 332 4662ft 213kts
02-Dec-19 17:34 37.556446 -122.226017 295 3636ft 160kts
02-Dec-19 17:35 37.576542 -122.274964 297 2236ft 153kts
02-Dec-19 17:36 37.594892 -122.320994 303 934ft 149kts
02-Dec-19 17:37 37.613626 -122.362847 298 23ft 106kts
02-Dec-19 17:38 37.618999 -122.377838 266 22ft 2kts
02-Dec-19 17:39 37.618955 -122.378629 267 22ft 11kts
02-Dec-19 17:40 37.619062 -122.383163 286 22ft 9kts
02-Dec-19 17:41 37.619179 -122.383558 290 22ft 0kts
02-Dec-19 17:42 37.619179 -122.383558 290 22ft 0kts
02-Dec-19 17:43 37.619179 -122.383558 290 22ft 0kts

Navigation Log

Ident Type
Flight plan parsing failed, navigation log unavailable